Time;durP1;ratioP1;P1;durP2;ratioP2;P2;SDS_P1;SDS_P2;PMS_P1;PMS_P2;Temp;Humidity;BMP_temperature;BMP_pressure;BME280_temperature;BME280_humidity;BME280_pressure;Samples;Min_cycle;Max_cycle;Signal;HPM_P1;HPM_P2
2021/11/02 00:00:08;;;;;;;;;;;;;;;18.72;66.89;99072.50;2083104;28;19967;-64
2021/11/02 00:01:09;;;;;;;;;;;;;;;18.73;66.96;99068.72;2086622;28;20439;-64
2021/11/02 00:02:10;;;;;;;;;;;;;;;18.73;66.97;99079.63;2080833;28;20719;-64
2021/11/02 00:03:11;;;;;;;;;;;;;;;18.72;66.99;99070.59;2084548;28;20349;-64
2021/11/02 00:04:12;;;;;;;;;;;;;;;18.72;66.98;99067.88;2083070;28;19916;-64
2021/11/02 00:05:13;;;;;;;;;;;;;;;18.73;66.97;99071.44;2083313;28;19916;-64
2021/11/02 00:06:14;;;;;;;;;;;;;;;18.71;66.95;99068.88;2087532;28;19913;-64
2021/11/02 00:07:14;;;;;;;;;;;;;;;18.72;66.84;99073.34;2086151;28;20653;-64
2021/11/02 00:08:14;;;;;;;;;;;;;;;18.72;66.90;99073.34;2088566;28;20321;-64
2021/11/02 00:09:16;;;;;;;;;;;;;;;18.70;66.97;99067.19;2083497;28;19916;-63
2021/11/02 00:10:17;;;;;;;;;;;;;;;18.72;66.92;99067.03;2084721;28;19925;-64
2021/11/02 00:11:17;;;;;;;;;;;;;;;18.72;66.90;99061.56;2086336;28;19951;-63
2021/11/02 00:12:18;;;;;;;;;;;;;;;18.71;67.02;99068.03;2084333;28;19958;-62
2021/11/02 00:13:21;;;;;;;;;;;;;;;18.70;67.03;99064.47;2080058;28;20311;-64
2021/11/02 00:14:24;;;;;;;;;;;;;;;18.71;66.86;99063.41;2073113;28;20318;-64
2021/11/02 00:15:27;;;;;;;;;;;;;;;18.73;66.87;99057.81;2085667;28;20641;-64
2021/11/02 00:16:28;;;;;;;;;;;;;;;18.70;66.78;99053.53;2086396;28;19931;-64
2021/11/02 00:17:30;;;;;;;;;;;;;;;18.70;66.92;99050.81;2086430;28;19977;-64
2021/11/02 00:18:31;;;;;;;;;;;;;;;18.71;66.90;99049.78;2081295;28;20765;-63
2021/11/02 00:19:32;;;;;;;;;;;;;;;18.71;66.92;99048.94;2085764;28;20291;-64
2021/11/02 00:20:33;;;;;;;;;;;;;;;18.70;66.92;99048.09;2084136;28;19912;-64
2021/11/02 00:21:38;;;;;;;;;;;;;;;18.70;66.94;99053.53;2086623;28;19930;-64
2021/11/02 00:22:39;;;;;;;;;;;;;;;18.70;66.92;99048.09;2088233;28;19954;-64
2021/11/02 00:23:40;;;;;;;;;;;;;;;18.70;66.90;99041.78;2083875;28;20065;-64
2021/11/02 00:24:56;;;;;;;;;;;;;;;18.70;66.94;99042.63;2080503;28;19955;-64
2021/11/02 00:25:56;;;;;;;;;;;;;;;18.70;66.93;99031.69;2084743;28;19920;-64
2021/11/02 00:26:57;;;;;;;;;;;;;;;18.69;66.84;99030.00;2074975;28;19921;-66
2021/11/02 00:27:58;;;;;;;;;;;;;;;18.70;66.88;99023.50;2082274;28;19939;-64
2021/11/02 00:28:58;;;;;;;;;;;;;;;18.69;66.93;99040.94;2085868;28;20303;-64
2021/11/02 00:29:59;;;;;;;;;;;;;;;18.69;66.80;99034.59;2075990;28;19912;-64
2021/11/02 00:30:59;;;;;;;;;;;;;;;18.69;66.88;99035.47;2074990;28;19912;-64
2021/11/02 00:32:00;;;;;;;;;;;;;;;18.69;66.80;99040.94;2075736;28;20006;-64
2021/11/02 00:33:01;;;;;;;;;;;;;;;18.69;66.86;99032.75;2075019;28;19916;-64
2021/11/02 00:34:02;;;;;;;;;;;;;;;18.70;66.94;99028.97;2078211;28;19967;-64
2021/11/02 00:35:02;;;;;;;;;;;;;;;18.70;66.87;99030.84;2075297;28;19960;-64
2021/11/02 00:36:03;;;;;;;;;;;;;;;18.68;66.96;99020.09;2086580;28;19916;-64
2021/11/02 00:37:03;;;;;;;;;;;;;;;18.69;66.94;99026.41;2088056;28;19908;-65
2021/11/02 00:38:03;;;;;;;;;;;;;;;18.69;66.93;99027.28;2084331;28;19916;-64
2021/11/02 00:39:04;;;;;;;;;;;;;;;18.69;66.82;99024.56;2074702;28;19956;-65
2021/11/02 00:40:06;;;;;;;;;;;;;;;18.70;66.93;99022.66;2075300;28;19917;-66
2021/11/02 00:41:06;;;;;;;;;;;;;;;18.70;66.95;99031.69;2073485;28;19924;-64
2021/11/02 00:42:07;;;;;;;;;;;;;;;18.70;66.92;99033.59;2076106;28;19917;-64
2021/11/02 00:43:09;;;;;;;;;;;;;;;18.69;66.95;99024.56;2074234;28;19921;-65
2021/11/02 00:44:10;;;;;;;;;;;;;;;18.70;66.91;99034.44;2074935;28;20676;-64
2021/11/02 00:45:12;;;;;;;;;;;;;;;18.70;66.91;99026.25;2084266;28;19923;-65
2021/11/02 00:46:13;;;;;;;;;;;;;;;18.70;66.93;99031.69;2090893;28;19916;-60
2021/11/02 00:47:17;;;;;;;;;;;;;;;18.71;66.88;99035.28;2088465;28;20343;-60
2021/11/02 00:48:25;;;;;;;;;;;;;;;18.70;66.97;99033.59;2089312;28;19920;-60
2021/11/02 00:49:26;;;;;;;;;;;;;;;18.70;67.01;99039.91;2095531;28;20002;-60
2021/11/02 00:50:27;;;;;;;;;;;;;;;18.69;66.85;99035.47;2091954;28;19913;-59
2021/11/02 00:51:28;;;;;;;;;;;;;;;18.69;66.88;99030.00;2095669;28;19904;-59
2021/11/02 00:52:29;;;;;;;;;;;;;;;18.69;67.02;99038.19;2087138;28;20007;-59
2021/11/02 00:53:29;;;;;;;;;;;;;;;18.68;66.90;99036.47;2088403;28;19919;-60
2021/11/02 00:54:30;;;;;;;;;;;;;;;18.69;67.01;99035.47;2087636;28;19917;-60
2021/11/02 00:55:31;;;;;;;;;;;;;;;18.69;67.11;99040.94;2075016;28;19925;-59
2021/11/02 00:56:31;;;;;;;;;;;;;;;18.69;67.16;99034.59;2078848;28;19967;-59
2021/11/02 00:57:31;;;;;;;;;;;;;;;18.68;67.15;99039.22;2083362;28;19913;-59
2021/11/02 00:58:31;;;;;;;;;;;;;;;18.69;67.14;99042.78;2078408;28;19952;-59
2021/11/02 00:59:32;;;;;;;;;;;;;;;18.68;67.14;99043.81;2085655;28;19960;-59
2021/11/02 01:00:34;;;;;;;;;;;;;;;18.68;67.31;99044.66;2082461;28;19921;-59
2021/11/02 01:01:34;;;;;;;;;;;;;;;18.69;67.37;99040.06;2090414;28;20019;-59
2021/11/02 01:02:35;;;;;;;;;;;;;;;18.68;67.37;99039.22;2081959;28;19909;-60
2021/11/02 01:03:36;;;;;;;;;;;;;;;18.68;67.33;99041.94;2083031;28;19927;-59
2021/11/02 01:04:37;;;;;;;;;;;;;;;18.68;67.28;99039.22;2083027;28;19924;-60
2021/11/02 01:05:38;;;;;;;;;;;;;;;18.68;67.32;99038.38;2085237;28;20610;-60
2021/11/02 01:06:38;;;;;;;;;;;;;;;18.68;67.31;99049.28;2086159;28;19928;-60
2021/11/02 01:07:39;;;;;;;;;;;;;;;18.67;67.40;99042.97;2092300;28;19981;-59
2021/11/02 01:08:39;;;;;;;;;;;;;;;18.67;67.36;99042.97;2087030;28;20391;-59
2021/11/02 01:09:39;;;;;;;;;;;;;;;18.67;67.49;99034.78;2083974;28;20394;-59
2021/11/02 01:10:46;;;;;;;;;;;;;;;18.67;67.43;99034.78;2084226;28;20434;-59
2021/11/02 01:11:46;;;;;;;;;;;;;;;18.67;67.40;99037.50;2089738;28;19969;-59
2021/11/02 01:12:48;;;;;;;;;;;;;;;18.66;67.34;99035.78;2087844;28;19917;-59
2021/11/02 01:13:48;;;;;;;;;;;;;;;18.67;67.28;99036.63;2087525;28;20027;-59
2021/11/02 01:14:48;;;;;;;;;;;;;;;18.67;67.42;99042.97;2091824;28;19947;-59
2021/11/02 01:15:49;;;;;;;;;;;;;;;18.67;67.47;99040.25;2092731;28;19908;-59
2021/11/02 01:16:49;;;;;;;;;;;;;;;18.67;67.48;99037.50;2091549;28;19927;-59
2021/11/02 01:17:50;;;;;;;;;;;;;;;18.67;67.46;99034.78;2085116;28;20011;-59
2021/11/02 01:18:51;;;;;;;;;;;;;;;18.68;67.42;99039.22;2082534;28;19913;-59
2021/11/02 01:19:52;;;;;;;;;;;;;;;18.67;67.48;99032.06;2081218;28;19948;-59
2021/11/02 01:20:52;;;;;;;;;;;;;;;18.67;67.51;99033.91;2093170;28;19919;-58
2021/11/02 01:21:52;;;;;;;;;;;;;;;18.65;67.61;99028.63;2088901;28;19944;-59
2021/11/02 01:22:53;;;;;;;;;;;;;;;18.66;67.58;99033.06;2087490;28;20599;-59
2021/11/02 01:23:54;;;;;;;;;;;;;;;18.66;67.51;99030.34;2074207;28;19920;-58
2021/11/02 01:24:54;;;;;;;;;;;;;;;18.67;67.48;99028.44;2082056;28;19963;-59
2021/11/02 01:25:54;;;;;;;;;;;;;;;18.65;67.59;99028.63;2092583;28;19912;-60
2021/11/02 01:26:55;;;;;;;;;;;;;;;18.65;67.73;99034.09;2087955;28;20313;-58
2021/11/02 01:27:55;;;;;;;;;;;;;;;18.65;67.57;99031.38;2091448;28;20795;-59
2021/11/02 01:28:55;;;;;;;;;;;;;;;18.66;67.65;99030.34;2086156;28;20035;-59
2021/11/02 01:29:56;;;;;;;;;;;;;;;18.65;67.64;99023.19;2083611;28;19921;-59
2021/11/02 01:30:57;;;;;;;;;;;;;;;18.65;67.61;99020.44;2087303;28;19916;-59
2021/11/02 01:31:57;;;;;;;;;;;;;;;18.65;67.53;99028.63;2088472;28;20850;-59
2021/11/02 01:32:57;;;;;;;;;;;;;;;18.65;67.57;99023.19;2090349;28;19951;-58
2021/11/02 01:33:58;;;;;;;;;;;;;;;18.64;67.57;99024.19;2093347;28;19927;-59
2021/11/02 01:35:00;;;;;;;;;;;;;;;18.64;67.59;99011.41;2087365;28;19924;-59
2021/11/02 01:36:00;;;;;;;;;;;;;;;18.63;67.62;99019.78;2076694;28;19921;-59
2021/11/02 01:37:00;;;;;;;;;;;;;;;18.63;67.61;99008.84;2097425;28;19916;-59
2021/11/02 01:38:04;;;;;;;;;;;;;;;18.64;67.59;99013.28;2089374;28;19913;-59
2021/11/02 01:39:06;;;;;;;;;;;;;;;18.63;67.67;99008.84;2096269;28;19920;-58
2021/11/02 01:40:08;;;;;;;;;;;;;;;18.63;67.63;99003.38;2083750;28;20367;-59
2021/11/02 01:41:08;;;;;;;;;;;;;;;18.64;67.57;99010.53;2091938;28;20480;-59
2021/11/02 01:42:09;;;;;;;;;;;;;;;18.63;67.55;99006.13;2097856;28;20331;-59
2021/11/02 01:43:11;;;;;;;;;;;;;;;18.64;67.54;99005.09;2091625;28;19940;-59
2021/11/02 01:44:11;;;;;;;;;;;;;;;18.62;67.60;98996.25;2083741;28;19955;-59
2021/11/02 01:45:12;;;;;;;;;;;;;;;18.62;67.58;98999.81;2085529;28;20083;-59
2021/11/02 01:46:45;;;;;;;;;;;;;;;18.62;67.46;98996.25;2089844;28;20454;-59
2021/11/02 01:47:47;;;;;;;;;;;;;;;18.62;67.48;98991.63;2065791;28;20363;-59
2021/11/02 01:48:49;;;;;;;;;;;;;;;18.62;67.52;98996.25;2084627;28;20209;-59
2021/11/02 01:49:49;;;;;;;;;;;;;;;18.62;67.44;98993.50;2082934;28;19917;-59
2021/11/02 01:50:50;;;;;;;;;;;;;;;18.64;67.66;98994.16;2083760;28;19912;-59
2021/11/02 01:51:50;;;;;;;;;;;;;;;18.63;67.62;98992.47;2084099;28;19996;-59
2021/11/02 01:52:51;;;;;;;;;;;;;;;18.63;67.55;98992.47;2084143;28;19912;-59
2021/11/02 01:53:51;;;;;;;;;;;;;;;18.62;67.55;98990.78;2081941;28;19905;-59
2021/11/02 01:54:52;;;;;;;;;;;;;;;18.62;67.50;98986.16;2085975;28;20346;-58
2021/11/02 01:55:52;;;;;;;;;;;;;;;18.62;67.51;98988.06;2093928;28;20371;-59
2021/11/02 01:56:52;;;;;;;;;;;;;;;18.61;67.58;98989.91;2083445;28;20007;-59
2021/11/02 01:57:53;;;;;;;;;;;;;;;18.62;67.56;98988.91;2083792;28;19939;-58
2021/11/02 01:58:53;;;;;;;;;;;;;;;18.61;67.55;98984.44;2092419;28;20011;-58
2021/11/02 01:59:55;;;;;;;;;;;;;;;18.61;67.64;98983.59;2091846;28;20405;-58
2021/11/02 02:00:59;;;;;;;;;;;;;;;18.62;67.54;98985.31;2091799;28;20375;-58
2021/11/02 02:02:08;;;;;;;;;;;;;;;18.62;67.26;98985.31;2091915;28;20007;-58
2021/11/02 02:03:14;;;;;;;;;;;;;;;18.60;67.52;98980.03;2092656;28;19912;-59
2021/11/02 02:04:21;;;;;;;;;;;;;;;18.61;67.42;98983.59;2092208;28;19916;-58
2021/11/02 02:05:40;;;;;;;;;;;;;;;18.61;67.26;98979.00;2087805;28;19916;-58
2021/11/02 02:06:49;;;;;;;;;;;;;;;18.60;67.24;98982.75;2085199;28;19975;-59
2021/11/02 02:08:03;;;;;;;;;;;;;;;18.61;67.24;98980.88;2092365;28;19983;-58
2021/11/02 02:09:11;;;;;;;;;;;;;;;18.61;67.19;98978.16;2091855;28;20347;-59
2021/11/02 02:10:11;;;;;;;;;;;;;;;18.61;67.10;98984.44;2088506;28;19924;-58
2021/11/02 02:11:12;;;;;;;;;;;;;;;18.60;67.06;98980.03;2088939;28;19921;-58
2021/11/02 02:12:24;;;;;;;;;;;;;;;18.61;67.01;98978.16;2090133;28;19923;-58
2021/11/02 02:13:37;;;;;;;;;;;;;;;18.61;66.94;98972.69;2083778;28;19966;-58
2021/11/02 02:14:55;;;;;;;;;;;;;;;18.60;67.10;98968.25;2085280;28;20371;-58
2021/11/02 02:16:14;;;;;;;;;;;;;;;18.60;66.89;98971.84;2092623;28;19928;-58
2021/11/02 02:17:17;;;;;;;;;;;;;;;18.61;66.88;98972.69;2084300;28;19920;-58
2021/11/02 02:18:20;;;;;;;;;;;;;;;18.61;66.89;98973.53;2086190;28;19923;-60
2021/11/02 02:19:42;;;;;;;;;;;;;;;18.61;67.03;98979.00;2094655;28;20470;-59
2021/11/02 02:20:57;;;;;;;;;;;;;;;18.60;66.97;98973.72;2090093;28;19970;-58
2021/11/02 02:22:07;;;;;;;;;;;;;;;18.61;66.94;98964.50;2095705;28;19925;-58
2021/11/02 02:23:30;;;;;;;;;;;;;;;18.59;67.01;98969.28;2089798;28;19916;-58
2021/11/02 02:24:49;;;;;;;;;;;;;;;18.60;66.94;98971.00;2082480;28;19921;-58
2021/11/02 02:26:13;;;;;;;;;;;;;;;18.59;66.93;98981.06;2083389;28;19913;-58
2021/11/02 02:27:23;;;;;;;;;;;;;;;18.59;66.88;98969.28;2096910;28;20011;-58
2021/11/02 02:28:26;;;;;;;;;;;;;;;18.59;66.99;98972.88;2091350;28;20577;-58
2021/11/02 02:29:29;;;;;;;;;;;;;;;18.59;66.97;98966.53;2089476;28;20387;-58
2021/11/02 02:30:30;;;;;;;;;;;;;;;18.59;66.91;98969.28;2093882;28;20163;-58
2021/11/02 02:31:32;;;;;;;;;;;;;;;18.59;66.86;98966.53;2089563;28;20332;-59
2021/11/02 02:32:36;;;;;;;;;;;;;;;18.59;66.92;98969.28;2087315;28;20306;-59
2021/11/02 02:33:38;;;;;;;;;;;;;;;18.60;66.89;98971.00;2083522;28;19956;-59
2021/11/02 02:34:39;;;;;;;;;;;;;;;18.59;66.92;98970.16;2082359;28;19947;-58
2021/11/02 02:35:40;;;;;;;;;;;;;;;18.58;66.88;98968.44;2090970;28;19912;-59
2021/11/02 02:36:42;;;;;;;;;;;;;;;18.58;66.89;98967.59;2086867;28;20482;-58
2021/11/02 02:37:43;;;;;;;;;;;;;;;18.59;66.88;98963.81;2089594;28;19920;-58
2021/11/02 02:38:45;;;;;;;;;;;;;;;18.58;66.97;98962.97;2097864;28;19959;-58
2021/11/02 02:39:46;;;;;;;;;;;;;;;18.58;66.90;98964.84;2085556;28;20342;-58
2021/11/02 02:40:49;;;;;;;;;;;;;;;18.58;66.93;98967.59;2089460;28;20221;-58
2021/11/02 02:41:50;;;;;;;;;;;;;;;18.59;66.77;98975.59;2092976;28;19969;-59
2021/11/02 02:42:51;;;;;;;;;;;;;;;18.59;66.96;98972.00;2091757;28;20394;-58
2021/11/02 02:43:51;;;;;;;;;;;;;;;18.59;66.94;98969.28;2093596;28;20330;-58
2021/11/02 02:44:53;;;;;;;;;;;;;;;18.58;67.00;98964.84;2088268;28;19946;-58
2021/11/02 02:45:55;;;;;;;;;;;;;;;18.58;67.12;98967.59;2090501;28;19916;-58
2021/11/02 02:46:55;;;;;;;;;;;;;;;18.59;67.07;98966.53;2091095;28;20011;-61
2021/11/02 02:47:57;;;;;;;;;;;;;;;18.58;66.99;98965.69;2090834;28;19931;-59
2021/11/02 02:48:58;;;;;;;;;;;;;;;18.58;67.15;98967.59;2094059;28;19917;-59
2021/11/02 02:50:00;;;;;;;;;;;;;;;18.59;67.16;98974.72;2083152;28;20344;-57
2021/11/02 02:51:02;;;;;;;;;;;;;;;18.59;67.04;98974.72;2081876;28;19924;-58
2021/11/02 02:52:03;;;;;;;;;;;;;;;18.59;67.25;98969.28;2082566;28;20031;-58
2021/11/02 02:53:04;;;;;;;;;;;;;;;18.58;67.13;98973.88;2086166;28;19913;-58
2021/11/02 02:54:04;;;;;;;;;;;;;;;18.58;67.21;98973.88;2088262;28;20068;-58
2021/11/02 02:55:06;;;;;;;;;;;;;;;18.58;67.12;98979.34;2089449;28;19912;-58
2021/11/02 02:56:08;;;;;;;;;;;;;;;18.58;67.07;98971.16;2082850;28;20007;-58
2021/11/02 02:57:10;;;;;;;;;;;;;;;18.59;67.31;98970.16;2084268;28;19979;-59
2021/11/02 02:58:11;;;;;;;;;;;;;;;18.58;67.25;98978.50;2088030;28;19963;-58
2021/11/02 02:59:12;;;;;;;;;;;;;;;18.58;67.16;98978.50;2089604;28;19920;-58
2021/11/02 03:00:13;;;;;;;;;;;;;;;18.58;67.29;98973.88;2093181;28;20379;-58
2021/11/02 03:01:15;;;;;;;;;;;;;;;18.57;67.33;98971.31;2083454;28;19921;-59
2021/11/02 03:02:16;;;;;;;;;;;;;;;18.58;67.19;98967.59;2082572;28;19921;-59
2021/11/02 03:03:17;;;;;;;;;;;;;;;18.57;67.21;98965.88;2090153;28;19921;-59
2021/11/02 03:04:24;;;;;;;;;;;;;;;18.57;67.25;98971.31;2091892;28;19951;-59
2021/11/02 03:05:26;;;;;;;;;;;;;;;18.57;67.25;98972.19;2088086;28;19994;-58
2021/11/02 03:06:27;;;;;;;;;;;;;;;18.57;67.32;98968.59;2094230;28;20443;-59
2021/11/02 03:07:28;;;;;;;;;;;;;;;18.57;67.26;98977.66;2089546;28;19920;-60
2021/11/02 03:08:29;;;;;;;;;;;;;;;18.57;67.23;98974.03;2090761;28;20499;-57
2021/11/02 03:09:30;;;;;;;;;;;;;;;18.56;67.29;98975.09;2095722;28;20576;-58
2021/11/02 03:10:30;;;;;;;;;;;;;;;18.56;67.18;98969.63;2101183;28;19917;-58
2021/11/02 03:11:32;;;;;;;;;;;;;;;18.56;67.22;98966.91;2098631;28;20365;-58
2021/11/02 03:12:34;;;;;;;;;;;;;;;18.57;67.17;98965.88;2085025;28;20409;-64
2021/11/02 03:13:36;;;;;;;;;;;;;;;18.56;67.22;98966.91;2088968;28;19915;-63
2021/11/02 03:14:50;;;;;;;;;;;;;;;18.57;67.39;98965.88;2084344;28;19952;-63
2021/11/02 03:15:59;;;;;;;;;;;;;;;18.55;67.24;98955.13;2082713;28;20482;-63
2021/11/02 03:17:11;;;;;;;;;;;;;;;18.55;67.11;98967.94;2087596;28;19966;-68
2021/11/02 03:18:34;;;;;;;;;;;;;;;18.55;67.13;98962.47;2085384;28;20394;-68
2021/11/02 03:51:42;;;;;;;;;;;;;;;18.52;67.06;98952.75;2079732;28;19955;-65
2021/11/02 03:55:56;;;;;;;;;;;;;;;18.52;66.94;98958.22;2075036;28;19921;-64
2021/11/02 03:57:07;;;;;;;;;;;;;;;18.52;67.10;98952.75;2080775;28;19928;-64
2021/11/02 03:58:28;;;;;;;;;;;;;;;18.54;67.21;98963.50;2085658;28;19970;-64
2021/11/02 05:09:15;;;;;;;;;;;;;;;18.47;67.01;98993.38;2060073;28;20655;-64
2021/11/02 05:10:37;;;;;;;;;;;;;;;18.48;66.91;98994.22;2081782;28;20174;-66
2021/11/02 05:12:20;;;;;;;;;;;;;;;18.48;66.96;98996.94;2089125;28;19924;-64
2021/11/02 05:55:44;;;;;;;;;;;;;;;18.45;66.62;98978.16;2078999;28;20007;-63
2021/11/02 06:00:18;;;;;;;;;;;;;;;18.42;66.73;98974.78;2078540;28;19920;-63
2021/11/02 06:09:47;;;;;;;;;;;;;;;18.45;66.81;98978.16;2072053;28;20196;-60
2021/11/02 06:28:44;;;;;;;;;;;;;;;18.45;66.59;98978.16;2072640;28;20163;-61
2021/11/02 06:29:46;;;;;;;;;;;;;;;18.45;66.42;98981.78;2072061;28;19925;-60
2021/11/02 06:31:32;;;;;;;;;;;;;;;18.45;66.51;98983.63;2074099;28;19932;-60
2021/11/02 06:32:33;;;;;;;;;;;;;;;18.45;66.47;98989.06;2057856;28;20374;-60
2021/11/02 06:36:16;;;;;;;;;;;;;;;18.45;66.36;99000.88;2072815;28;20441;-60
2021/11/02 06:38:56;;;;;;;;;;;;;;;18.45;66.39;99000.00;2074807;28;20015;-60
2021/11/02 06:59:05;;;;;;;;;;;;;;;18.42;66.82;99006.66;2073757;28;20119;-65
2021/11/02 07:19:13;;;;;;;;;;;;;;;18.39;66.82;99024.22;2084055;28;19960;-65
2021/11/02 07:21:27;;;;;;;;;;;;;;;18.39;66.84;99032.41;2086290;28;20015;-65
2021/11/02 07:24:37;;;;;;;;;;;;;;;18.40;66.76;99042.31;2086602;28;19924;-66
2021/11/02 08:46:49;;;;;;;;;;;;;;;18.40;66.39;99058.69;2078684;22;19928;-64
2021/11/02 08:47:53;;;;;;;;;;;;;;;18.39;66.53;99056.97;2075724;28;19949;-65
2021/11/02 08:48:58;;;;;;;;;;;;;;;18.39;66.62;99059.69;2071099;28;19917;-65
2021/11/02 08:49:59;;;;;;;;;;;;;;;18.40;66.51;99052.38;2074875;28;19917;-64
2021/11/02 08:51:00;;;;;;;;;;;;;;;18.40;66.55;99053.22;2073609;28;19944;-64
2021/11/02 08:52:03;;;;;;;;;;;;;;;18.39;66.52;99050.66;2072687;28;19916;-65
2021/11/02 08:53:04;;;;;;;;;;;;;;;18.39;66.46;99056.97;2076463;28;19913;-63
2021/11/02 08:54:04;;;;;;;;;;;;;;;18.40;66.51;99060.56;2074408;28;20630;-64
2021/11/02 08:55:06;;;;;;;;;;;;;;;18.39;66.74;99056.09;2073297;28;20782;-65
2021/11/02 08:56:06;;;;;;;;;;;;;;;18.39;66.48;99064.28;2080041;28;20250;-64
2021/11/02 08:57:07;;;;;;;;;;;;;;;18.39;66.74;99056.97;2074645;28;19928;-64
2021/11/02 08:58:07;;;;;;;;;;;;;;;18.39;66.65;99067.88;2075288;28;20277;-64
2021/11/02 08:59:07;;;;;;;;;;;;;;;18.39;66.69;99062.41;2081164;28;19962;-66
2021/11/02 09:00:08;;;;;;;;;;;;;;;18.39;66.66;99058.84;2073905;28;19913;-64
2021/11/02 09:01:08;;;;;;;;;;;;;;;18.39;66.65;99062.41;2075296;28;19917;-64
2021/11/02 09:02:10;;;;;;;;;;;;;;;18.39;66.65;99056.97;2072452;28;20008;-64
2021/11/02 09:03:21;;;;;;;;;;;;;;;18.41;66.66;99054.06;2073738;28;19916;-63
2021/11/02 09:04:24;;;;;;;;;;;;;;;18.40;66.66;99050.50;2073521;28;20012;-63
2021/11/02 09:07:04;;;;;;;;;;;;;;;18.40;66.66;99046.91;2072854;28;20181;-64
2021/11/02 09:08:05;;;;;;;;;;;;;;;18.41;66.72;99048.59;2074209;28;19920;-64
2021/11/02 09:09:06;;;;;;;;;;;;;;;18.41;66.63;99054.06;2078959;28;20315;-64
2021/11/02 09:10:10;;;;;;;;;;;;;;;18.40;66.70;99052.38;2072381;28;19952;-64
2021/11/02 09:11:13;;;;;;;;;;;;;;;18.41;66.63;99054.06;2076436;28;20742;-64
2021/11/02 09:12:14;;;;;;;;;;;;;;;18.39;66.66;99056.97;2074589;28;20364;-64
2021/11/02 09:13:15;;;;;;;;;;;;;;;18.40;66.68;99055.09;2073899;28;20645;-63
2021/11/02 09:14:17;;;;;;;;;;;;;;;18.40;66.77;99047.75;2077130;28;20317;-64
2021/11/02 09:15:37;;;;;;;;;;;;;;;18.40;66.77;99050.50;2073939;28;20412;-63
2021/11/02 09:16:38;;;;;;;;;;;;;;;18.39;66.75;99059.69;2073705;28;19917;-63
2021/11/02 09:17:43;;;;;;;;;;;;;;;18.37;66.81;99048.13;2077546;28;19920;-63
2021/11/02 09:18:45;;;;;;;;;;;;;;;18.39;66.78;99046.03;2071616;28;20660;-63
2021/11/02 09:19:46;;;;;;;;;;;;;;;18.40;66.92;99047.75;2071839;28;20007;-64
2021/11/02 09:20:46;;;;;;;;;;;;;;;18.40;66.85;99046.91;2074977;28;19916;-64
2021/11/02 09:21:47;;;;;;;;;;;;;;;18.39;66.85;99040.59;2071768;28;19924;-64
2021/11/02 09:22:48;;;;;;;;;;;;;;;18.39;66.92;99046.03;2076143;28;19912;-63
2021/11/02 09:23:52;;;;;;;;;;;;;;;18.39;66.83;99040.59;2072715;28;19913;-64
2021/11/02 09:24:53;;;;;;;;;;;;;;;18.39;66.73;99046.03;2080199;28;19919;-65
2021/11/02 09:25:54;;;;;;;;;;;;;;;18.39;66.79;99032.41;2075650;28;19917;-64
2021/11/02 09:26:54;;;;;;;;;;;;;;;18.39;66.63;99039.75;2073515;28;19916;-64
2021/11/02 09:27:55;;;;;;;;;;;;;;;18.40;66.82;99046.91;2076873;28;19952;-64
2021/11/02 09:28:56;;;;;;;;;;;;;;;18.39;66.82;99043.31;2075577;28;19925;-64
2021/11/02 09:29:59;;;;;;;;;;;;;;;18.39;66.87;99048.78;2074905;28;20035;-65
2021/11/02 09:31:00;;;;;;;;;;;;;;;18.41;66.77;99048.59;2073779;28;20410;-64
2021/11/02 09:32:01;;;;;;;;;;;;;;;18.40;66.91;99052.38;2076784;28;20394;-66
2021/11/02 09:33:01;;;;;;;;;;;;;;;18.40;66.86;99050.50;2073110;28;19917;-64
2021/11/02 09:34:02;;;;;;;;;;;;;;;18.40;66.87;99044.19;2075478;28;19924;-66
2021/11/02 09:35:03;;;;;;;;;;;;;;;18.39;66.70;99035.13;2075758;28;19924;-64
2021/11/02 09:36:05;;;;;;;;;;;;;;;18.39;66.74;99035.13;2075381;28;19923;-62
2021/11/02 09:37:08;;;;;;;;;;;;;;;18.40;66.73;99036.84;2071650;28;19983;-64
2021/11/02 09:38:27;;;;;;;;;;;;;;;18.41;66.84;99043.16;2068480;28;19909;-64
2021/11/02 09:39:37;;;;;;;;;;;;;;;18.40;66.86;99046.91;2071102;28;20376;-64
2021/11/02 09:41:00;;;;;;;;;;;;;;;18.38;66.89;99041.63;2081147;28;20607;-65
2021/11/02 09:42:00;;;;;;;;;;;;;;;18.39;67.02;99046.03;2075730;28;20431;-64
2021/11/02 09:43:22;;;;;;;;;;;;;;;18.38;66.84;99033.44;2076740;28;20276;-64
2021/11/02 09:44:34;;;;;;;;;;;;;;;18.38;66.90;99038.91;2077344;28;19932;-65
2021/11/02 09:45:43;;;;;;;;;;;;;;;18.39;66.87;99032.41;2073265;28;19968;-65
2021/11/02 09:46:50;;;;;;;;;;;;;;;18.39;66.83;99039.75;2073073;28;20365;-65
2021/11/02 09:47:50;;;;;;;;;;;;;;;18.38;66.71;99033.44;2072127;28;19924;-65
2021/11/02 09:49:06;;;;;;;;;;;;;;;18.39;66.67;99029.66;2075852;28;20087;-65
2021/11/02 09:50:21;;;;;;;;;;;;;;;18.39;66.67;99029.66;2074395;28;19967;-65
2021/11/02 09:51:25;;;;;;;;;;;;;;;18.40;66.78;99023.22;2077372;28;19917;-65
2021/11/02 09:52:45;;;;;;;;;;;;;;;18.39;66.71;99026.94;2077867;28;20460;-66
2021/11/02 09:53:53;;;;;;;;;;;;;;;18.40;66.55;99025.94;2075841;28;19932;-66
2021/11/02 09:55:12;;;;;;;;;;;;;;;18.39;66.52;99029.66;2076603;28;19964;-66
2021/11/02 09:56:32;;;;;;;;;;;;;;;18.40;66.63;99020.47;2077862;28;19920;-66
2021/11/02 09:57:35;;;;;;;;;;;;;;;18.38;66.57;99022.53;2080515;28;20011;-65
2021/11/02 09:59:01;;;;;;;;;;;;;;;18.39;66.50;99018.75;2075343;28;20452;-66
2021/11/02 10:00:02;;;;;;;;;;;;;;;18.39;66.60;99024.22;2074683;28;19924;-65
2021/11/02 10:01:21;;;;;;;;;;;;;;;18.39;66.68;99017.91;2077598;28;20399;-67
2021/11/02 10:02:23;;;;;;;;;;;;;;;18.40;66.61;99025.09;2076312;28;19917;-66
2021/11/02 10:03:39;;;;;;;;;;;;;;;18.40;66.47;99015.03;2076747;28;19920;-64
2021/11/02 10:05:02;;;;;;;;;;;;;;;18.40;66.39;99008.72;2076365;28;20437;-65
2021/11/02 10:06:05;;;;;;;;;;;;;;;18.40;66.54;99015.03;2075459;28;19916;-66
2021/11/02 10:07:08;;;;;;;;;;;;;;;18.38;66.43;99010.75;2077769;28;19916;-66
2021/11/02 10:08:17;;;;;;;;;;;;;;;18.39;66.50;99016.03;2077897;28;19915;-67
2021/11/02 10:09:37;;;;;;;;;;;;;;;18.38;66.40;99011.59;2078513;28;19917;-66
2021/11/02 10:10:59;;;;;;;;;;;;;;;18.38;66.47;99019.78;2082287;28;19921;-66
2021/11/02 10:12:05;;;;;;;;;;;;;;;18.37;66.42;99018.09;2078983;28;19971;-66
2021/11/02 10:13:13;;;;;;;;;;;;;;;18.38;66.53;99016.22;2077822;28;20011;-66
2021/11/02 10:14:27;;;;;;;;;;;;;;;18.37;66.49;99009.91;2077375;28;19917;-66
2021/11/02 10:15:34;;;;;;;;;;;;;;;18.37;66.41;99015.38;2082478;28;19920;-64
2021/11/02 10:16:35;;;;;;;;;;;;;;;18.37;66.52;99012.66;2089936;28;19924;-60
2021/11/02 10:17:46;;;;;;;;;;;;;;;18.40;66.39;99016.91;2091581;28;19913;-61
2021/11/02 10:19:08;;;;;;;;;;;;;;;18.40;66.41;99008.72;2096246;28;19913;-59
2021/11/02 10:20:28;;;;;;;;;;;;;;;18.40;66.56;99014.19;2087491;28;20014;-60
2021/11/02 10:21:31;;;;;;;;;;;;;;;18.41;66.36;99011.25;2080385;28;19917;-59
2021/11/02 10:23:00;;;;;;;;;;;;;;;18.41;66.46;99011.25;2077615;28;19917;-59
2021/11/02 10:24:19;;;;;;;;;;;;;;;18.41;66.57;99016.72;2075520;28;20905;-59
2021/11/02 10:25:39;;;;;;;;;;;;;;;18.41;66.62;99005.81;2091867;28;19917;-59
2021/11/02 10:26:48;;;;;;;;;;;;;;;18.42;66.54;99006.66;2089324;28;19964;-60
2021/11/02 10:27:55;;;;;;;;;;;;;;;18.41;66.43;98999.50;2089378;28;20020;-59
2021/11/02 10:29:31;;;;;;;;;;;;;;;18.41;66.43;98999.50;2088027;28;19989;-59
2021/11/02 10:30:37;;;;;;;;;;;;;;;18.40;66.59;98997.81;2064115;28;20009;-61
2021/11/02 10:31:43;;;;;;;;;;;;;;;18.39;66.50;99002.38;2065859;28;20495;-59
2021/11/02 10:32:44;;;;;;;;;;;;;;;18.40;66.65;99009.56;2074236;28;19913;-60
2021/11/02 10:33:48;;;;;;;;;;;;;;;18.41;66.55;99003.06;2093400;28;19909;-59
2021/11/02 10:35:11;;;;;;;;;;;;;;;18.41;66.58;98994.03;2092232;28;19919;-60
2021/11/02 10:36:24;;;;;;;;;;;;;;;18.41;66.68;98989.44;2080476;28;19921;-60
2021/11/02 10:37:41;;;;;;;;;;;;;;;18.41;66.69;98991.31;2082881;28;20334;-60
2021/11/02 10:38:51;;;;;;;;;;;;;;;18.42;66.67;98991.16;2087841;28;19912;-60
2021/11/02 10:40:07;;;;;;;;;;;;;;;18.41;66.67;98986.69;2077676;28;20446;-60
2021/11/02 10:41:12;;;;;;;;;;;;;;;18.41;66.82;98983.97;2080436;28;19924;-60
2021/11/02 10:42:37;;;;;;;;;;;;;;;18.41;66.79;98983.97;2088443;28;19920;-61
2021/11/02 10:43:47;;;;;;;;;;;;;;;18.42;66.63;98976.63;2076604;28;19905;-61